Flight Track Log - Related Links

Times and Time Zones

All times are in EDT time to prevent confusion due to time zone crossing. See the LBQ968 flight status page for this flight to view local times or setup timezone preferences in your user account.

Time Position Orientation Groundspeed Altitude Reporting Facility
EDT Latitude Longitude Course Direction KTS MPH feet Rate Location/Type
Sat 11:29:17 PM 38.7000 -77.4333 90° East 150 173 2,900  Level Potomac TRACON
Sat 11:30:17 PM 38.7000 -77.4000 90° East 154 177 4,300 1,100 Climbing Potomac TRACON
Sat 11:31:17 PM 38.7500 -77.3667 27° Northeast 156 180 5,100 400 Climbing Potomac TRACON
Sat 11:32:17 PM 38.8000 -77.3667 360° North 192 221 5,100  Level Potomac TRACON
Sat 11:33:17 PM 38.8500 -77.3667 360° North 197 227 5,100  Level Potomac TRACON
Sat 11:34:17 PM 38.9000 -77.3667 360° North 198 228 5,100  Level Potomac TRACON
Sat 11:35:17 PM 38.9500 -77.3667 360° North 203 234 5,100  Level Potomac TRACON
Sat 11:36:17 PM 39.0167 -77.3500 11° North 199 229 5,100  Level Potomac TRACON
Sat 11:37:17 PM 39.0667 -77.3500 360° North 204 235 5,100 -50 Level Potomac TRACON
Sat 11:38:17 PM 39.1167 -77.3000 38° Northeast 197 227 5,000 -50 Descending Potomac TRACON
Sat 11:39:18 PM 39.1500 -77.2667 38° Northeast 198 228 5,000  Level Potomac TRACON
Sat 11:40:18 PM 39.2000 -77.2167 38° Northeast 200 230 5,000  Level Potomac TRACON
Sat 11:41:18 PM 39.2333 -77.1667 49° Northeast 200 230 5,000  Level Potomac TRACON
Sat 11:42:18 PM 39.2833 -77.1167 38° Northeast 202 232 5,000  Level Potomac TRACON
Sat 11:43:18 PM 39.3333 -77.0833 27° Northeast 204 235 5,000  Level Potomac TRACON
Sat 11:44:18 PM 39.3667 -77.0333 49° Northeast 201 231 5,000  Level Potomac TRACON
Sat 11:45:18 PM 39.4167 -76.9833 38° Northeast 195 224 5,000  Level Potomac TRACON
Sat 11:46:18 PM 39.4500 -76.9500 38° Northeast 199 229 5,000  Level Potomac TRACON
Sat 11:47:24 PM 39.5000 -76.9000 38° Northeast 199 229 5,000  Level Potomac TRACON
Sat 11:48:24 PM 39.5500 -76.8500 38° Northeast 202 232 5,000  Level Potomac TRACON
Sat 11:50:00 PM 39.6100 -76.7809 42° Northeast  Level FlightAware Approximate
Sat 11:57:00 PM 39.8725 -76.4776 37° Northeast  Level FlightAware Approximate
Sat 11:58:00 PM 39.9123 -76.4379 37° Northeast  Level FlightAware Approximate
Sat 11:59:00 PM 39.9521 -76.3982 37° Northeast  Level FlightAware Approximate
Sun 12:00:00 AM 39.9919 -76.3584 37° Northeast  Level FlightAware Approximate
Sun 12:01:00 AM 40.0317 -76.3186 37° Northeast  Level FlightAware Approximate
Sun 12:02:00 AM 40.0715 -76.2787 37° Northeast  Level FlightAware Approximate
Sun 12:03:00 AM 40.1113 -76.2388 37° Northeast  Level FlightAware Approximate
Sun 12:04:00 AM 40.1511 -76.1989 37° Northeast  Level FlightAware Approximate
Sun 12:05:00 AM 40.1900 -76.1578 45° Northeast  Level FlightAware Approximate
Sun 12:06:00 AM 40.2308 -76.1191 36° Northeast  Level FlightAware Approximate
Sun 12:07:00 AM 40.2715 -76.0786 37° Northeast  Level FlightAware Approximate
Sun 12:08:00 AM 40.3115 -76.0385 37° Northeast  Level FlightAware Approximate
Sun 12:09:00 AM 40.3459 -75.9915 57° Northeast  Level FlightAware Approximate
Sun 12:10:00 AM 40.3667 -75.9500 57° Northeast  Level FlightAware Approximate
Sun 12:11:00 AM 40.3785 -75.9652 180° South  Level Estimated
Sun 12:12:00 AM 40.3785 -75.9652 57° Northeast  Level Estimated
Sun 12:13:00 AM 40.3785 -75.9652 136° Southeast  Level Estimated
Sun 12:14:00 AM 40.3785 -75.9652 57° Northeast  Level Estimated
Sun 12:15:00 AM 40.3785 -75.9652 136° Southeast  Level Estimated
Sun 12:16:00 AM 40.3785 -75.9652 57° Northeast  Level Estimated
Sun 12:17:00 AM 40.3785 -75.9652 136° Southeast  Level Estimated
Sun 12:18:00 AM 40.3785 -75.9652 57° Northeast  Level Estimated
Sun 12:19:00 AM 40.3785 -75.9652 136° Southeast  Level Estimated
Sun 12:20:00 AM 40.3785 -75.9652 57° Northeast  Level Estimated

Login

Don't have an account? Register now (free) for customized features, flight alerts, and more!